createdAt,value
2018-09-21T00:01:51.883Z,11.07
2018-09-21T00:04:20.512Z,11.60
2018-09-21T00:06:49.191Z,10.90
2018-09-21T00:09:19.884Z,10.50
2018-09-21T00:11:48.478Z,10.97
2018-09-21T00:14:17.059Z,12.60
2018-09-21T00:16:45.632Z,11.23
2018-09-21T00:19:14.252Z,11.53
2018-09-21T00:21:42.884Z,11.50
2018-09-21T00:24:11.874Z,11.30
2018-09-21T00:26:40.829Z,10.30
2018-09-21T00:29:09.735Z,12.77
2018-09-21T00:31:38.646Z,11.47
2018-09-21T00:34:07.273Z,12.33
2018-09-21T00:36:35.923Z,11.53
2018-09-21T00:39:06.550Z,10.90
2018-09-21T00:41:35.125Z,12.20
2018-09-21T00:44:04.534Z,11.60
2018-09-21T00:46:33.156Z,11.40
2018-09-21T00:49:01.700Z,11.00
2018-09-21T00:51:30.259Z,11.30
2018-09-21T00:53:58.794Z,11.37
2018-09-21T00:56:27.501Z,12.40
2018-09-21T00:58:56.159Z,11.87
2018-09-21T01:01:24.845Z,11.67
2018-09-21T01:03:53.538Z,11.90
2018-09-21T01:06:22.246Z,12.03
2018-09-21T01:08:50.771Z,12.23
2018-09-21T01:11:19.369Z,12.60
2018-09-21T01:13:47.949Z,12.80
2018-09-21T01:16:16.498Z,12.40
2018-09-21T01:18:45.153Z,12.50
2018-09-21T01:21:13.758Z,12.07
2018-09-21T01:23:49.711Z,11.97
2018-09-21T01:26:18.359Z,11.30
2018-09-21T01:28:46.941Z,12.87
2018-09-21T01:31:15.546Z,11.70
2018-09-21T01:33:44.075Z,12.83
2018-09-21T01:36:12.730Z,13.13
2018-09-21T01:38:47.927Z,11.73
2018-09-21T01:41:16.498Z,12.90
2018-09-21T01:43:45.065Z,12.43
2018-09-21T01:46:13.703Z,11.80
2018-09-21T01:48:42.272Z,12.93
2018-09-21T01:51:10.871Z,11.93
2018-09-21T01:53:39.472Z,11.03
2018-09-21T01:56:08.090Z,12.33
2018-09-21T01:58:36.683Z,13.77
2018-09-21T02:01:05.233Z,13.83
2018-09-21T02:03:33.802Z,12.37
2018-09-21T02:06:03.438Z,13.30
2018-09-21T02:08:32.037Z,13.60
2018-09-21T02:11:00.744Z,12.27
2018-09-21T02:13:29.439Z,13.17
2018-09-21T02:15:58.019Z,12.50
2018-09-21T02:18:26.641Z,12.13
2018-09-21T02:20:55.317Z,12.80
2018-09-21T02:23:28.879Z,11.87
2018-09-21T02:25:57.504Z,12.90
2018-09-21T02:28:26.096Z,11.77
2018-09-21T02:30:54.750Z,12.17
2018-09-21T02:33:23.354Z,11.70
2018-09-21T02:35:51.953Z,12.87
2018-09-21T02:38:20.549Z,12.43
2018-09-21T02:40:49.144Z,10.47
2018-09-21T02:43:17.730Z,14.00
2018-09-21T02:45:46.269Z,13.20
2018-09-21T02:48:14.892Z,12.03
2018-09-21T02:50:43.522Z,11.70
2018-09-21T02:53:12.130Z,12.80
2018-09-21T02:55:40.693Z,12.70
2018-09-21T02:58:09.381Z,12.73
2018-09-21T03:00:38.082Z,12.93
2018-09-21T03:03:06.536Z,12.40
2018-09-21T03:05:35.233Z,12.67
2018-09-21T03:08:13.576Z,11.57
2018-09-21T03:10:42.179Z,13.77
2018-09-21T03:13:10.819Z,13.73
2018-09-21T03:15:40.533Z,12.30
2018-09-21T03:18:09.203Z,12.60
2018-09-21T03:20:37.822Z,13.63
2018-09-21T03:23:06.468Z,13.33
2018-09-21T03:25:35.014Z,13.60
2018-09-21T03:28:03.567Z,13.63
2018-09-21T03:30:32.104Z,12.40
2018-09-21T03:33:00.785Z,14.10
2018-09-21T03:35:29.326Z,12.67
2018-09-21T03:37:57.918Z,13.73
2018-09-21T03:40:34.161Z,13.80
2018-09-21T03:43:02.814Z,12.70
2018-09-21T03:45:31.430Z,13.10
2018-09-21T03:47:59.977Z,13.00
2018-09-21T03:50:28.599Z,12.80
2018-09-21T03:52:57.200Z,12.60
2018-09-21T03:55:26.865Z,13.83
2018-09-21T03:57:55.445Z,13.20
2018-09-21T04:00:24.067Z,13.93
2018-09-21T04:02:52.659Z,13.43
2018-09-21T04:05:21.320Z,12.90
2018-09-21T04:07:49.881Z,12.20
2018-09-21T04:10:18.556Z,13.57
2018-09-21T04:12:47.201Z,13.03
2018-09-21T04:15:15.793Z,12.10
2018-09-21T04:17:44.346Z,13.33
2018-09-21T04:20:13.112Z,13.20
2018-09-21T04:22:46.294Z,13.03
2018-09-21T04:25:14.953Z,14.33
2018-09-21T04:27:43.624Z,13.10
2018-09-21T04:30:12.260Z,14.03
2018-09-21T04:32:40.894Z,15.27
2018-09-21T04:35:09.682Z,14.47
2018-09-21T04:37:38.287Z,13.90
2018-09-21T04:40:06.972Z,14.73
2018-09-21T04:42:35.603Z,15.10
2018-09-21T04:45:04.551Z,12.70
2018-09-21T04:47:33.103Z,13.50
2018-09-21T04:50:01.830Z,13.50
2018-09-21T04:52:30.392Z,13.60
2018-09-21T04:54:59.088Z,14.53
2018-09-21T04:57:27.634Z,13.47
2018-09-21T04:59:56.244Z,13.93
2018-09-21T05:02:24.882Z,15.67
2018-09-21T05:04:53.562Z,16.00
2018-09-21T05:07:22.190Z,15.20
2018-09-21T05:09:50.800Z,15.33
2018-09-21T05:12:19.415Z,15.13
2018-09-21T05:14:48.090Z,14.70
2018-09-21T05:17:16.694Z,15.40
2018-09-21T05:19:45.347Z,13.90
2018-09-21T05:22:13.958Z,15.27
2018-09-21T05:24:42.542Z,13.47
2018-09-21T05:27:11.194Z,14.77
2018-09-21T05:29:39.805Z,14.03
2018-09-21T05:32:08.419Z,13.90
2018-09-21T05:34:37.085Z,13.43
2018-09-21T05:37:06.002Z,14.40
2018-09-21T05:39:34.642Z,15.43
2018-09-21T05:42:03.322Z,15.20
2018-09-21T05:44:31.909Z,14.77
2018-09-21T05:47:00.518Z,13.60
2018-09-21T05:49:29.074Z,14.80
2018-09-21T05:51:57.701Z,15.20
2018-09-21T05:54:26.284Z,13.70
2018-09-21T05:56:54.985Z,14.00
2018-09-21T05:59:23.581Z,14.43
2018-09-21T06:01:52.170Z,15.37
2018-09-21T06:04:20.823Z,15.70
2018-09-21T06:06:49.439Z,14.80
2018-09-21T06:09:18.026Z,16.90
2018-09-21T06:11:46.707Z,17.00
2018-09-21T06:14:15.314Z,16.43
2018-09-21T06:16:43.955Z,16.13
2018-09-21T06:19:12.528Z,17.60
2018-09-21T06:21:41.128Z,18.63
2018-09-21T06:24:09.711Z,17.30
2018-09-21T06:26:38.345Z,15.27
2018-09-21T06:29:06.928Z,14.93
2018-09-21T06:31:35.506Z,15.80
2018-09-21T06:34:04.143Z,16.03
2018-09-21T06:36:32.732Z,16.00
2018-09-21T06:39:01.385Z,17.80
2018-09-21T06:41:30.041Z,16.77
2018-09-21T06:43:58.579Z,17.10
2018-09-21T06:46:28.275Z,16.97
2018-09-21T06:48:56.859Z,18.93
2018-09-21T06:51:25.552Z,15.93
2018-09-21T06:53:54.174Z,17.70
2018-09-21T06:56:22.776Z,16.30
2018-09-21T06:58:51.431Z,16.60
2018-09-21T07:01:20.083Z,17.17
2018-09-21T07:03:48.625Z,15.73
2018-09-21T07:06:17.236Z,17.30
2018-09-21T07:08:45.777Z,17.43
2018-09-21T07:11:14.329Z,15.90
2018-09-21T07:13:42.911Z,17.47
2018-09-21T07:16:12.599Z,16.40
2018-09-21T07:18:41.138Z,14.47
2018-09-21T07:21:09.772Z,15.80
2018-09-21T07:23:38.374Z,16.77
2018-09-21T07:26:06.985Z,13.70
2018-09-21T07:28:35.553Z,15.20
2018-09-21T07:31:04.204Z,14.63
2018-09-21T07:33:32.843Z,14.10
2018-09-21T07:36:01.406Z,15.30
2018-09-21T07:38:30.022Z,14.40
2018-09-21T07:40:58.734Z,15.13
2018-09-21T07:43:27.369Z,13.50
2018-09-21T07:46:02.090Z,15.53
2018-09-21T07:48:30.739Z,12.50
2018-09-21T07:50:59.356Z,12.90
2018-09-21T07:53:28.068Z,12.20
2018-09-21T07:55:56.669Z,11.73
2018-09-21T07:58:25.313Z,11.40
2018-09-21T08:00:53.910Z,13.00
2018-09-21T08:03:22.514Z,11.40
2018-09-21T08:05:51.123Z,11.50
2018-09-21T08:08:19.691Z,10.70
2018-09-21T08:10:48.394Z,11.13
2018-09-21T08:13:17.013Z,11.17
2018-09-21T08:15:45.629Z,11.87
2018-09-21T08:18:14.225Z,11.27
2018-09-21T08:20:42.789Z,11.07
2018-09-21T08:23:11.352Z,11.43
2018-09-21T08:25:39.933Z,12.00
2018-09-21T08:28:08.473Z,10.83
2018-09-21T08:30:37.153Z,10.50
2018-09-21T08:33:05.882Z,10.60
2018-09-21T08:35:34.516Z,9.83
2018-09-21T08:38:03.136Z,11.10
2018-09-21T08:40:31.709Z,10.83
2018-09-21T08:43:00.265Z,9.60
2018-09-21T08:45:28.949Z,10.20
2018-09-21T08:47:57.479Z,9.70
2018-09-21T08:50:26.128Z,10.03
2018-09-21T08:52:54.867Z,10.63
2018-09-21T08:55:23.560Z,9.00
2018-09-21T08:57:52.149Z,10.00
2018-09-21T09:00:20.792Z,9.43
2018-09-21T09:02:49.426Z,9.37
2018-09-21T09:05:21.282Z,10.13
2018-09-21T09:07:50.281Z,8.97
2018-09-21T09:10:19.910Z,9.40
2018-09-21T09:12:48.443Z,9.30
2018-09-21T09:15:17.042Z,8.57
2018-09-21T09:17:45.591Z,8.70
2018-09-21T09:20:14.231Z,8.43
2018-09-21T09:22:42.825Z,8.47
2018-09-21T09:25:11.423Z,8.90
2018-09-21T09:27:40.028Z,8.50
2018-09-21T09:30:08.744Z,8.30
2018-09-21T09:32:37.968Z,7.30
2018-09-21T09:35:06.638Z,8.03
2018-09-21T09:37:35.149Z,7.47
2018-09-21T09:40:03.722Z,7.50
2018-09-21T09:42:32.303Z,6.93
2018-09-21T09:45:00.883Z,6.90
2018-09-21T09:47:29.422Z,7.07
2018-09-21T09:49:58.029Z,6.73
2018-09-21T09:52:26.597Z,7.57
2018-09-21T09:54:55.254Z,7.03
2018-09-21T09:57:23.802Z,6.90
2018-09-21T09:59:52.490Z,8.17
2018-09-21T10:02:21.058Z,7.60
2018-09-21T10:04:49.644Z,7.03
2018-09-21T10:07:18.247Z,6.70
2018-09-21T10:09:46.867Z,7.57
2018-09-21T10:12:15.429Z,6.80
2018-09-21T10:14:44.072Z,6.80
2018-09-21T10:17:12.666Z,6.73
2018-09-21T10:19:41.274Z,7.20
2018-09-21T10:22:09.793Z,7.30
2018-09-21T10:24:38.378Z,6.93
2018-09-21T10:27:07.078Z,6.70
2018-09-21T10:29:35.687Z,7.10
2018-09-21T10:32:04.353Z,7.70
2018-09-21T10:34:32.954Z,6.57
2018-09-21T10:37:01.527Z,6.70
2018-09-21T10:39:30.088Z,7.60
2018-09-21T10:41:58.685Z,7.10
2018-09-21T10:44:30.918Z,6.57
2018-09-21T10:46:59.499Z,7.00
2018-09-21T10:49:28.029Z,6.63
2018-09-21T10:51:56.613Z,7.40
2018-09-21T10:54:25.159Z,7.30
2018-09-21T10:56:53.771Z,7.10
2018-09-21T10:59:22.337Z,7.20
2018-09-21T11:01:50.952Z,7.53
2018-09-21T11:04:19.522Z,6.60
2018-09-21T11:06:48.156Z,7.57
2018-09-21T11:09:16.837Z,6.93
2018-09-21T11:11:45.551Z,7.20
2018-09-21T11:14:18.215Z,6.77
2018-09-21T11:16:46.892Z,7.23
2018-09-21T11:19:15.425Z,7.23
2018-09-21T11:21:44.061Z,6.40
2018-09-21T11:24:12.679Z,6.73
2018-09-21T11:26:41.339Z,7.50
2018-09-21T11:29:09.917Z,6.87
2018-09-21T11:31:38.508Z,7.77
2018-09-21T11:34:07.143Z,7.60
2018-09-21T11:36:35.728Z,6.63
2018-09-21T11:39:05.265Z,7.17
2018-09-21T11:41:33.841Z,7.70
2018-09-21T11:44:02.515Z,6.33
2018-09-21T11:46:31.111Z,7.27
2018-09-21T11:48:59.819Z,7.30
2018-09-21T11:51:28.429Z,7.97
2018-09-21T11:53:57.062Z,6.50
2018-09-21T11:56:25.600Z,6.90
2018-09-21T11:58:54.181Z,7.47
2018-09-21T12:01:22.874Z,6.67
2018-09-21T12:03:51.590Z,6.77
2018-09-21T12:06:20.199Z,7.00
2018-09-21T12:08:48.839Z,7.00
2018-09-21T12:11:17.425Z,7.33
2018-09-21T12:13:46.091Z,7.10
2018-09-21T12:16:14.668Z,7.87
2018-09-21T12:18:43.261Z,7.20
2018-09-21T12:21:11.885Z,7.40
2018-09-21T12:23:40.522Z,7.10
2018-09-21T12:26:09.299Z,7.00
2018-09-21T12:28:37.923Z,7.60
2018-09-21T12:31:06.769Z,7.30
2018-09-21T12:33:35.720Z,7.50
2018-09-21T12:36:04.869Z,8.20
2018-09-21T12:38:42.874Z,7.03
2018-09-21T12:41:11.474Z,7.17
2018-09-21T12:43:45.815Z,6.80
2018-09-21T12:46:22.015Z,6.97
2018-09-21T12:48:53.240Z,7.37
2018-09-21T12:51:21.790Z,7.30
2018-09-21T12:53:51.451Z,6.80
2018-09-21T12:56:20.099Z,6.60
2018-09-21T12:58:49.833Z,7.77
2018-09-21T13:01:18.410Z,7.90
2018-09-21T13:03:48.890Z,7.50
2018-09-21T13:06:17.542Z,7.30
2018-09-21T13:08:46.267Z,7.43
2018-09-21T13:11:18.243Z,7.20
2018-09-21T13:13:46.882Z,6.87
2018-09-21T13:16:16.646Z,6.83
2018-09-21T13:18:45.309Z,6.90
2018-09-21T13:21:13.945Z,6.53
2018-09-21T13:23:42.527Z,7.10
2018-09-21T13:26:11.149Z,7.10
2018-09-21T13:28:39.741Z,7.60
2018-09-21T13:31:08.341Z,6.73
2018-09-21T13:33:36.998Z,6.77
2018-09-21T13:36:06.070Z,6.13
2018-09-21T13:38:34.681Z,6.90
2018-09-21T13:41:03.275Z,6.50
2018-09-21T13:43:31.919Z,6.50
2018-09-21T13:46:04.432Z,5.80
2018-09-21T13:48:33.002Z,6.80
2018-09-21T13:51:01.569Z,6.37
2018-09-21T13:53:30.234Z,6.70
2018-09-21T13:55:58.792Z,6.23
2018-09-21T13:58:31.367Z,6.10
2018-09-21T14:00:59.906Z,6.03
2018-09-21T14:03:28.464Z,6.23
2018-09-21T14:06:01.040Z,5.20
2018-09-21T14:08:34.285Z,5.93
2018-09-21T14:11:02.876Z,5.73
2018-09-21T14:13:31.521Z,5.47
2018-09-21T14:16:00.119Z,5.40
2018-09-21T14:18:28.741Z,6.17
2018-09-21T14:20:57.312Z,5.93
2018-09-21T14:23:25.949Z,5.87
2018-09-21T14:25:54.599Z,5.90
2018-09-21T14:28:23.197Z,5.33
2018-09-21T14:30:51.883Z,5.40
2018-09-21T14:33:20.474Z,5.73
2018-09-21T14:35:49.148Z,6.20
2018-09-21T14:38:17.734Z,5.60
2018-09-21T14:40:46.350Z,5.27
2018-09-21T14:43:15.020Z,5.20
2018-09-21T14:45:43.699Z,5.23
2018-09-21T14:48:12.313Z,4.73
2018-09-21T14:50:41.105Z,4.83
2018-09-21T14:53:09.793Z,5.60
2018-09-21T14:55:39.537Z,5.10
2018-09-21T14:58:08.158Z,4.83
2018-09-21T15:00:37.815Z,4.97
2018-09-21T15:03:06.418Z,4.67
2018-09-21T15:05:35.007Z,4.77
2018-09-21T15:08:03.574Z,4.10
2018-09-21T15:10:32.397Z,4.10
2018-09-21T15:13:01.029Z,4.97
2018-09-21T15:15:33.029Z,4.10
2018-09-21T15:18:01.578Z,4.57
2018-09-21T15:20:35.593Z,4.60
2018-09-21T15:23:04.153Z,4.93
2018-09-21T15:25:32.773Z,4.53
2018-09-21T15:28:01.415Z,4.73
2018-09-21T15:30:30.357Z,4.80
2018-09-21T15:32:58.988Z,4.47
2018-09-21T15:35:27.596Z,4.13
2018-09-21T15:37:56.399Z,4.20
2018-09-21T15:40:28.776Z,3.87
2018-09-21T15:42:57.347Z,3.50
2018-09-21T15:45:31.035Z,3.53
2018-09-21T15:47:59.663Z,3.40
2018-09-21T15:50:28.221Z,3.37
2018-09-21T15:52:56.833Z,4.07
2018-09-21T15:55:25.471Z,4.17
2018-09-21T15:57:54.234Z,5.20
2018-09-21T16:00:22.856Z,3.00
2018-09-21T16:02:51.467Z,2.57
2018-09-21T16:05:20.082Z,1.80
2018-09-21T16:07:48.726Z,3.87
2018-09-21T16:10:17.627Z,2.00
2018-09-21T16:12:46.281Z,1.90
2018-09-21T16:15:15.023Z,3.50
2018-09-21T16:17:43.725Z,3.70
2018-09-21T16:20:13.381Z,1.40
2018-09-21T16:22:42.040Z,1.10
2018-09-21T16:25:10.696Z,0.97
2018-09-21T16:27:39.329Z,1.23
2018-09-21T16:30:09.120Z,1.00
2018-09-21T16:32:37.849Z,1.03
2018-09-21T16:35:06.928Z,0.97
2018-09-21T16:37:35.537Z,0.77
2018-09-21T16:40:04.146Z,1.20
2018-09-21T16:42:32.749Z,1.70
2018-09-21T16:45:02.407Z,0.80
2018-09-21T16:47:31.015Z,0.80
2018-09-21T16:49:59.710Z,1.30
2018-09-21T16:52:28.334Z,2.10
2018-09-21T16:54:56.946Z,1.83
2018-09-21T16:57:25.573Z,0.90
2018-09-21T16:59:54.123Z,1.07
2018-09-21T17:02:22.728Z,1.00
2018-09-21T17:04:51.566Z,1.03
2018-09-21T17:07:20.588Z,1.03
2018-09-21T17:09:49.768Z,2.33
2018-09-21T17:12:18.967Z,1.60
2018-09-21T17:14:47.567Z,1.00
2018-09-21T17:17:16.213Z,0.80
2018-09-21T17:19:44.948Z,1.17
2018-09-21T17:22:13.641Z,1.10
2018-09-21T17:24:42.281Z,1.57
2018-09-21T17:27:10.971Z,2.20
2018-09-21T17:29:39.627Z,1.57
2018-09-21T17:32:08.248Z,1.70
2018-09-21T17:34:36.861Z,1.57
2018-09-21T17:37:05.674Z,2.03
2018-09-21T17:39:34.324Z,1.90
2018-09-21T17:42:02.998Z,1.67
2018-09-21T17:44:31.646Z,1.50
2018-09-21T17:47:00.411Z,1.43
2018-09-21T17:49:29.066Z,1.73
2018-09-21T17:51:57.755Z,1.77
2018-09-21T17:54:26.437Z,1.63
2018-09-21T17:56:55.151Z,1.97
2018-09-21T17:59:23.781Z,1.97
2018-09-21T18:01:52.500Z,1.70
2018-09-21T18:04:21.131Z,1.90
2018-09-21T18:06:49.820Z,2.10
2018-09-21T18:09:18.520Z,1.80
2018-09-21T18:11:47.211Z,1.90
2018-09-21T18:14:15.763Z,2.17
2018-09-21T18:16:44.404Z,2.23
2018-09-21T18:19:14.147Z,1.67
2018-09-21T18:21:42.790Z,1.70
2018-09-21T18:24:11.391Z,2.17
2018-09-21T18:26:39.978Z,2.00
2018-09-21T18:29:08.684Z,2.87
2018-09-21T18:31:37.325Z,2.27
2018-09-21T18:34:06.957Z,1.80
2018-09-21T18:36:35.645Z,2.80
2018-09-21T18:39:05.113Z,2.30
2018-09-21T18:41:33.645Z,2.20
2018-09-21T18:44:02.323Z,2.53
2018-09-21T18:46:30.903Z,2.57
2018-09-21T18:48:59.660Z,1.97
2018-09-21T18:51:28.263Z,2.30
2018-09-21T18:53:56.902Z,1.80
2018-09-21T18:56:25.440Z,2.43
2018-09-21T18:58:54.065Z,2.40
2018-09-21T19:01:22.589Z,2.33
2018-09-21T19:03:51.232Z,3.40
2018-09-21T19:06:19.959Z,2.17
2018-09-21T19:08:49.432Z,2.33
2018-09-21T19:11:18.079Z,1.60
2018-09-21T19:13:46.633Z,2.60
2018-09-21T19:16:15.211Z,1.70
2018-09-21T19:18:43.873Z,2.03
2018-09-21T19:21:12.374Z,2.80
2018-09-21T19:23:40.981Z,2.50
2018-09-21T19:26:09.630Z,1.90
2018-09-21T19:28:38.202Z,1.87
2018-09-21T19:31:07.017Z,2.80
2018-09-21T19:33:35.667Z,2.10
2018-09-21T19:36:04.784Z,2.30
2018-09-21T19:38:33.823Z,2.27
2018-09-21T19:41:04.507Z,2.00
2018-09-21T19:43:35.128Z,2.27
2018-09-21T19:46:03.711Z,2.13
2018-09-21T19:48:35.600Z,2.10
2018-09-21T19:51:04.173Z,1.87
2018-09-21T19:53:32.797Z,1.97
2018-09-21T19:56:01.379Z,1.73
2018-09-21T19:58:30.015Z,2.40
2018-09-21T20:00:58.646Z,2.17
2018-09-21T20:03:27.275Z,2.10
2018-09-21T20:05:55.919Z,1.90
2018-09-21T20:08:24.671Z,2.10
2018-09-21T20:10:53.257Z,1.40
2018-09-21T20:13:22.881Z,1.87
2018-09-21T20:15:51.507Z,2.23
2018-09-21T20:18:20.038Z,2.50
2018-09-21T20:20:48.720Z,1.57
2018-09-21T20:23:17.258Z,2.07
2018-09-21T20:25:45.914Z,1.60
2018-09-21T20:28:14.549Z,2.10
2018-09-21T20:32:58.045Z,1.43
2018-09-21T20:35:26.739Z,1.63
2018-09-21T20:37:55.329Z,1.60
2018-09-21T20:40:23.971Z,2.50
2018-09-21T20:42:52.620Z,1.90
2018-09-21T20:45:21.254Z,2.03
2018-09-21T20:47:49.893Z,2.20
2018-09-21T20:50:18.528Z,1.80
2018-09-21T20:52:47.096Z,1.43
2018-09-21T20:55:15.754Z,1.30
2018-09-21T20:57:44.364Z,1.67
2018-09-21T21:00:13.128Z,2.40
2018-09-21T21:02:41.721Z,1.43
2018-09-21T21:05:10.441Z,1.90
2018-09-21T21:07:38.975Z,1.70
2018-09-21T21:10:07.633Z,1.70
2018-09-21T21:12:36.201Z,1.50
2018-09-21T21:15:04.920Z,1.80
2018-09-21T21:17:33.605Z,2.20
2018-09-21T21:20:02.258Z,1.60
2018-09-21T21:22:30.871Z,1.73
2018-09-21T21:24:59.527Z,2.10
2018-09-21T21:27:28.137Z,1.67
2018-09-21T21:29:56.669Z,1.87
2018-09-21T21:32:25.360Z,1.53
2018-09-21T21:34:53.986Z,1.30
2018-09-21T21:37:22.540Z,1.40
2018-09-21T21:39:51.185Z,1.77
2018-09-21T21:42:19.751Z,1.73
2018-09-21T21:44:48.381Z,2.20
2018-09-21T21:47:16.989Z,1.20
2018-09-21T21:49:45.507Z,2.10
2018-09-21T21:52:14.147Z,1.83
2018-09-21T21:54:42.765Z,2.33
2018-09-21T21:57:11.393Z,1.63
2018-09-21T21:59:40.045Z,1.47
2018-09-21T22:02:11.277Z,1.47
2018-09-21T22:04:40.333Z,2.03
2018-09-21T22:07:09.721Z,1.57
2018-09-21T22:09:41.607Z,1.87
2018-09-21T22:12:15.365Z,1.43
2018-09-21T22:14:43.913Z,1.70
2018-09-21T22:17:12.494Z,1.67
2018-09-21T22:19:45.037Z,1.80
2018-09-21T22:22:13.695Z,1.60
2018-09-21T22:24:42.334Z,1.30
2018-09-21T22:27:10.934Z,1.50
2018-09-21T22:29:39.608Z,1.57
2018-09-21T22:32:08.254Z,2.10
2018-09-21T22:34:36.833Z,2.10
2018-09-21T22:37:05.528Z,1.87
2018-09-21T22:39:34.170Z,1.80
2018-09-21T22:42:02.857Z,1.60
2018-09-21T22:44:31.444Z,1.60
2018-09-21T22:47:00.094Z,1.80
2018-09-21T22:49:28.730Z,1.80
2018-09-21T22:51:57.383Z,1.50
2018-09-21T22:54:25.956Z,2.10
2018-09-21T22:56:58.510Z,1.60
2018-09-21T22:59:27.045Z,1.40
2018-09-21T23:01:55.637Z,1.30
2018-09-21T23:04:24.259Z,2.67
2018-09-21T23:06:52.874Z,1.90
2018-09-21T23:09:21.498Z,1.47
2018-09-21T23:11:50.181Z,1.87
2018-09-21T23:14:23.860Z,1.70
2018-09-21T23:16:52.474Z,2.10
2018-09-21T23:19:21.104Z,1.83
2018-09-21T23:21:49.701Z,1.70
2018-09-21T23:24:18.292Z,2.03
2018-09-21T23:26:46.879Z,1.80
2018-09-21T23:29:15.449Z,1.90
2018-09-21T23:31:44.146Z,3.17
2018-09-21T23:34:12.808Z,1.60
2018-09-21T23:36:41.373Z,1.43
2018-09-21T23:39:10.513Z,2.00
2018-09-21T23:41:39.510Z,2.20
2018-09-21T23:44:08.701Z,2.43
2018-09-21T23:46:37.497Z,2.00
2018-09-21T23:49:12.493Z,2.40
2018-09-21T23:51:41.115Z,2.17
2018-09-21T23:54:09.716Z,2.10
2018-09-21T23:56:38.345Z,1.97
2018-09-21T23:59:07.001Z,2.07
